sensor_id;sensor_type;location;lat;lon;timestamp;temperature;humidity
78904;DHT22;68291;49.602;8.722;2023-05-29T00:02:36;18.00;69.40
78904;DHT22;68291;49.602;8.722;2023-05-29T00:05:14;18.10;69.20
78904;DHT22;68291;49.602;8.722;2023-05-29T00:07:45;18.10;69.10
78904;DHT22;68291;49.602;8.722;2023-05-29T00:10:20;18.10;69.60
78904;DHT22;68291;49.602;8.722;2023-05-29T00:13:06;18.10;69.40
78904;DHT22;68291;49.602;8.722;2023-05-29T00:15:49;18.20;69.50
78904;DHT22;68291;49.602;8.722;2023-05-29T00:18:36;18.10;69.50
78904;DHT22;68291;49.602;8.722;2023-05-29T00:21:15;18.10;69.00
78904;DHT22;68291;49.602;8.722;2023-05-29T00:23:50;18.10;69.10
78904;DHT22;68291;49.602;8.722;2023-05-29T00:26:30;18.10;69.00
78904;DHT22;68291;49.602;8.722;2023-05-29T00:29:01;18.10;68.80
78904;DHT22;68291;49.602;8.722;2023-05-29T00:31:41;18.10;68.40
78904;DHT22;68291;49.602;8.722;2023-05-29T00:34:25;18.10;68.30
78904;DHT22;68291;49.602;8.722;2023-05-29T00:37:04;18.10;68.00
78904;DHT22;68291;49.602;8.722;2023-05-29T00:39:50;18.10;69.30
78904;DHT22;68291;49.602;8.722;2023-05-29T00:42:48;18.10;69.20
78904;DHT22;68291;49.602;8.722;2023-05-29T00:45:21;18.10;69.90
78904;DHT22;68291;49.602;8.722;2023-05-29T00:48:05;18.00;69.80
78904;DHT22;68291;49.602;8.722;2023-05-29T00:50:40;17.90;69.70
78904;DHT22;68291;49.602;8.722;2023-05-29T00:53:24;17.90;70.10
78904;DHT22;68291;49.602;8.722;2023-05-29T00:56:03;17.80;70.00
78904;DHT22;68291;49.602;8.722;2023-05-29T00:58:43;17.80;70.40
78904;DHT22;68291;49.602;8.722;2023-05-29T01:01:23;17.70;70.40
78904;DHT22;68291;49.602;8.722;2023-05-29T01:04:04;17.70;69.70
78904;DHT22;68291;49.602;8.722;2023-05-29T01:07:00;17.60;69.50
78904;DHT22;68291;49.602;8.722;2023-05-29T01:09:52;17.60;69.40
78904;DHT22;68291;49.602;8.722;2023-05-29T01:12:51;17.60;70.00
78904;DHT22;68291;49.602;8.722;2023-05-29T01:15:35;17.60;70.70
78904;DHT22;68291;49.602;8.722;2023-05-29T01:18:37;17.50;71.10
78904;DHT22;68291;49.602;8.722;2023-05-29T01:21:27;17.50;70.90
78904;DHT22;68291;49.602;8.722;2023-05-29T01:24:29;17.40;71.20
78904;DHT22;68291;49.602;8.722;2023-05-29T01:27:30;17.40;71.60
78904;DHT22;68291;49.602;8.722;2023-05-29T01:30:16;17.30;72.30
78904;DHT22;68291;49.602;8.722;2023-05-29T01:32:58;17.30;71.50
78904;DHT22;68291;49.602;8.722;2023-05-29T01:35:30;17.20;71.80
78904;DHT22;68291;49.602;8.722;2023-05-29T01:38:10;17.10;72.10
78904;DHT22;68291;49.602;8.722;2023-05-29T01:40:51;16.90;72.00
78904;DHT22;68291;49.602;8.722;2023-05-29T01:43:29;16.90;72.70
78904;DHT22;68291;49.602;8.722;2023-05-29T01:46:07;16.80;73.70
78904;DHT22;68291;49.602;8.722;2023-05-29T01:48:38;16.70;73.00
78904;DHT22;68291;49.602;8.722;2023-05-29T01:51:12;16.60;73.40
78904;DHT22;68291;49.602;8.722;2023-05-29T01:53:51;16.60;73.40
78904;DHT22;68291;49.602;8.722;2023-05-29T01:56:24;16.50;73.60
78904;DHT22;68291;49.602;8.722;2023-05-29T01:59:06;16.40;73.80
78904;DHT22;68291;49.602;8.722;2023-05-29T02:01:55;16.30;74.60
78904;DHT22;68291;49.602;8.722;2023-05-29T02:04:25;16.30;74.40
78904;DHT22;68291;49.602;8.722;2023-05-29T02:07:06;16.20;74.50
78904;DHT22;68291;49.602;8.722;2023-05-29T02:09:46;16.10;74.80
78904;DHT22;68291;49.602;8.722;2023-05-29T02:12:26;16.00;75.30
78904;DHT22;68291;49.602;8.722;2023-05-29T02:15:30;16.00;75.30
78904;DHT22;68291;49.602;8.722;2023-05-29T02:18:03;15.90;76.50
78904;DHT22;68291;49.602;8.722;2023-05-29T02:20:38;15.90;75.70
78904;DHT22;68291;49.602;8.722;2023-05-29T02:23:22;15.80;76.00
78904;DHT22;68291;49.602;8.722;2023-05-29T02:25:56;15.70;76.20
78904;DHT22;68291;49.602;8.722;2023-05-29T02:28:39;15.60;76.30
78904;DHT22;68291;49.602;8.722;2023-05-29T02:31:36;15.60;77.30
78904;DHT22;68291;49.602;8.722;2023-05-29T02:34:07;15.50;77.10
78904;DHT22;68291;49.602;8.722;2023-05-29T02:36:54;15.50;76.60
78904;DHT22;68291;49.602;8.722;2023-05-29T02:39:26;15.40;76.80
78904;DHT22;68291;49.602;8.722;2023-05-29T02:41:58;15.40;77.50
78904;DHT22;68291;49.602;8.722;2023-05-29T02:44:37;15.30;77.90
78904;DHT22;68291;49.602;8.722;2023-05-29T02:47:27;15.30;77.50
78904;DHT22;68291;49.602;8.722;2023-05-29T02:50:02;15.20;79.30
78904;DHT22;68291;49.602;8.722;2023-05-29T02:53:02;15.20;77.90
78904;DHT22;68291;49.602;8.722;2023-05-29T02:55:42;15.10;77.80
78904;DHT22;68291;49.602;8.722;2023-05-29T02:58:22;15.10;78.10
78904;DHT22;68291;49.602;8.722;2023-05-29T03:00:53;15.00;78.10
78904;DHT22;68291;49.602;8.722;2023-05-29T03:03:34;15.00;78.30
78904;DHT22;68291;49.602;8.722;2023-05-29T03:06:18;14.90;79.10
78904;DHT22;68291;49.602;8.722;2023-05-29T03:08:57;14.90;78.50
78904;DHT22;68291;49.602;8.722;2023-05-29T03:11:31;14.90;79.00
78904;DHT22;68291;49.602;8.722;2023-05-29T03:14:23;14.80;79.30
78904;DHT22;68291;49.602;8.722;2023-05-29T03:16:56;14.80;79.30
78904;DHT22;68291;49.602;8.722;2023-05-29T03:19:38;14.80;79.10
78904;DHT22;68291;49.602;8.722;2023-05-29T03:22:24;14.70;80.20
78904;DHT22;68291;49.602;8.722;2023-05-29T03:24:54;14.70;79.40
78904;DHT22;68291;49.602;8.722;2023-05-29T03:27:31;14.70;80.10
78904;DHT22;68291;49.602;8.722;2023-05-29T03:30:15;14.70;80.30
78904;DHT22;68291;49.602;8.722;2023-05-29T03:32:55;14.70;80.50
78904;DHT22;68291;49.602;8.722;2023-05-29T03:36:15;14.70;80.40
78904;DHT22;68291;49.602;8.722;2023-05-29T03:38:51;14.70;81.90
78904;DHT22;68291;49.602;8.722;2023-05-29T03:41:31;14.70;80.80
78904;DHT22;68291;49.602;8.722;2023-05-29T03:44:06;14.70;81.20
78904;DHT22;68291;49.602;8.722;2023-05-29T03:47:01;14.70;81.40
78904;DHT22;68291;49.602;8.722;2023-05-29T03:49:35;14.70;81.20
78904;DHT22;68291;49.602;8.722;2023-05-29T03:52:09;14.70;80.80
78904;DHT22;68291;49.602;8.722;2023-05-29T03:54:39;14.70;81.20
78904;DHT22;68291;49.602;8.722;2023-05-29T03:57:18;14.80;80.90
78904;DHT22;68291;49.602;8.722;2023-05-29T04:00:04;14.90;80.60
78904;DHT22;68291;49.602;8.722;2023-05-29T04:02:43;15.00;80.70
78904;DHT22;68291;49.602;8.722;2023-05-29T04:05:26;15.20;80.50
78904;DHT22;68291;49.602;8.722;2023-05-29T04:08:26;15.30;80.20
78904;DHT22;68291;49.602;8.722;2023-05-29T04:10:58;15.40;81.00
78904;DHT22;68291;49.602;8.722;2023-05-29T04:13:35;15.50;80.00
78904;DHT22;68291;49.602;8.722;2023-05-29T04:16:19;15.60;80.00
78904;DHT22;68291;49.602;8.722;2023-05-29T04:19:00;15.70;80.00
78904;DHT22;68291;49.602;8.722;2023-05-29T04:21:40;15.80;80.00
78904;DHT22;68291;49.602;8.722;2023-05-29T04:24:45;15.90;79.70
78904;DHT22;68291;49.602;8.722;2023-05-29T04:27:21;16.00;80.20
78904;DHT22;68291;49.602;8.722;2023-05-29T04:30:01;16.00;79.60
78904;DHT22;68291;49.602;8.722;2023-05-29T04:32:35;16.10;79.70
78904;DHT22;68291;49.602;8.722;2023-05-29T04:35:15;16.10;79.50
78904;DHT22;68291;49.602;8.722;2023-05-29T04:37:58;16.20;79.70
78904;DHT22;68291;49.602;8.722;2023-05-29T04:40:58;16.30;79.70
78904;DHT22;68291;49.602;8.722;2023-05-29T04:43:30;16.30;79.60
78904;DHT22;68291;49.602;8.722;2023-05-29T04:46:03;16.40;79.40
78904;DHT22;68291;49.602;8.722;2023-05-29T04:48:36;16.40;79.20
78904;DHT22;68291;49.602;8.722;2023-05-29T04:51:16;16.50;79.20
78904;DHT22;68291;49.602;8.722;2023-05-29T04:53:50;16.50;78.90
78904;DHT22;68291;49.602;8.722;2023-05-29T04:56:46;16.60;79.00
78904;DHT22;68291;49.602;8.722;2023-05-29T04:59:20;16.70;79.10
78904;DHT22;68291;49.602;8.722;2023-05-29T05:01:50;16.80;78.80
78904;DHT22;68291;49.602;8.722;2023-05-29T05:04:20;16.80;78.90
78904;DHT22;68291;49.602;8.722;2023-05-29T05:07:00;16.90;78.90
78904;DHT22;68291;49.602;8.722;2023-05-29T05:09:43;16.90;78.80
78904;DHT22;68291;49.602;8.722;2023-05-29T05:15:48;17.10;78.60
78904;DHT22;68291;49.602;8.722;2023-05-29T05:18:29;17.00;78.40
78904;DHT22;68291;49.602;8.722;2023-05-29T05:21:06;17.20;78.50
78904;DHT22;68291;49.602;8.722;2023-05-29T05:23:47;17.30;78.40
78904;DHT22;68291;49.602;8.722;2023-05-29T05:26:27;17.30;78.20
78904;DHT22;68291;49.602;8.722;2023-05-29T05:29:09;17.30;78.20
78904;DHT22;68291;49.602;8.722;2023-05-29T05:31:39;17.40;78.40
78904;DHT22;68291;49.602;8.722;2023-05-29T05:34:20;17.50;78.10
78904;DHT22;68291;49.602;8.722;2023-05-29T05:36:53;17.50;77.90
78904;DHT22;68291;49.602;8.722;2023-05-29T05:39:28;17.60;78.00
78904;DHT22;68291;49.602;8.722;2023-05-29T05:42:00;17.60;77.80
78904;DHT22;68291;49.602;8.722;2023-05-29T05:44:52;17.60;77.60
78904;DHT22;68291;49.602;8.722;2023-05-29T05:47:22;17.70;77.50
78904;DHT22;68291;49.602;8.722;2023-05-29T05:50:04;17.80;77.20
78904;DHT22;68291;49.602;8.722;2023-05-29T05:52:37;17.80;77.30
78904;DHT22;68291;49.602;8.722;2023-05-29T05:55:20;17.90;77.20
78904;DHT22;68291;49.602;8.722;2023-05-29T05:57:59;18.00;77.10
78904;DHT22;68291;49.602;8.722;2023-05-29T06:00:53;18.10;76.90
78904;DHT22;68291;49.602;8.722;2023-05-29T06:03:35;18.20;77.20
78904;DHT22;68291;49.602;8.722;2023-05-29T06:06:15;18.20;76.80
78904;DHT22;68291;49.602;8.722;2023-05-29T06:08:56;18.30;77.00
78904;DHT22;68291;49.602;8.722;2023-05-29T06:11:36;18.30;77.00
78904;DHT22;68291;49.602;8.722;2023-05-29T06:14:10;18.40;77.10
78904;DHT22;68291;49.602;8.722;2023-05-29T06:16:59;18.50;77.30
78904;DHT22;68291;49.602;8.722;2023-05-29T06:19:40;18.60;76.80
78904;DHT22;68291;49.602;8.722;2023-05-29T06:22:29;18.60;76.60
78904;DHT22;68291;49.602;8.722;2023-05-29T06:25:24;18.70;76.40
78904;DHT22;68291;49.602;8.722;2023-05-29T06:28:03;18.80;76.50
78904;DHT22;68291;49.602;8.722;2023-05-29T06:30:35;18.90;76.50
78904;DHT22;68291;49.602;8.722;2023-05-29T06:33:14;19.00;76.40
78904;DHT22;68291;49.602;8.722;2023-05-29T06:35:56;19.00;76.80
78904;DHT22;68291;49.602;8.722;2023-05-29T06:38:36;19.10;76.80
78904;DHT22;68291;49.602;8.722;2023-05-29T06:41:17;19.20;76.40
78904;DHT22;68291;49.602;8.722;2023-05-29T06:43:50;19.30;76.40
78904;DHT22;68291;49.602;8.722;2023-05-29T06:46:22;19.30;76.40
78904;DHT22;68291;49.602;8.722;2023-05-29T06:49:14;19.40;76.70
78904;DHT22;68291;49.602;8.722;2023-05-29T06:51:56;19.40;77.20
78904;DHT22;68291;49.602;8.722;2023-05-29T06:54:46;19.50;76.70
78904;DHT22;68291;49.602;8.722;2023-05-29T06:57:17;19.60;76.70
78904;DHT22;68291;49.602;8.722;2023-05-29T06:59:58;19.70;76.80
78904;DHT22;68291;49.602;8.722;2023-05-29T07:02:42;19.70;76.70
78904;DHT22;68291;49.602;8.722;2023-05-29T07:05:39;19.80;76.30
78904;DHT22;68291;49.602;8.722;2023-05-29T07:08:14;19.90;76.30
78904;DHT22;68291;49.602;8.722;2023-05-29T07:10:55;19.90;76.30
78904;DHT22;68291;49.602;8.722;2023-05-29T07:13:33;20.00;76.10
78904;DHT22;68291;49.602;8.722;2023-05-29T07:16:17;20.10;76.20
78904;DHT22;68291;49.602;8.722;2023-05-29T07:19:05;20.10;76.10
78904;DHT22;68291;49.602;8.722;2023-05-29T07:21:52;20.20;76.00
78904;DHT22;68291;49.602;8.722;2023-05-29T07:24:31;20.30;76.10
78904;DHT22;68291;49.602;8.722;2023-05-29T07:27:08;20.30;76.00
78904;DHT22;68291;49.602;8.722;2023-05-29T07:29:48;20.40;76.40
78904;DHT22;68291;49.602;8.722;2023-05-29T07:32:24;20.40;76.50
78904;DHT22;68291;49.602;8.722;2023-05-29T07:35:06;20.50;76.20
78904;DHT22;68291;49.602;8.722;2023-05-29T07:37:52;20.60;76.30
78904;DHT22;68291;49.602;8.722;2023-05-29T07:40:26;20.70;76.30
78904;DHT22;68291;49.602;8.722;2023-05-29T07:43:05;20.80;76.00
78904;DHT22;68291;49.602;8.722;2023-05-29T07:45:45;20.90;75.90
78904;DHT22;68291;49.602;8.722;2023-05-29T07:48:19;21.00;76.10
78904;DHT22;68291;49.602;8.722;2023-05-29T07:51:17;21.00;75.50
78904;DHT22;68291;49.602;8.722;2023-05-29T07:57:04;21.20;76.10
78904;DHT22;68291;49.602;8.722;2023-05-29T07:59:55;21.40;76.00
78904;DHT22;68291;49.602;8.722;2023-05-29T08:02:48;21.50;76.80
78904;DHT22;68291;49.602;8.722;2023-05-29T08:05:37;21.70;76.70
78904;DHT22;68291;49.602;8.722;2023-05-29T08:08:12;21.80;76.00
78904;DHT22;68291;49.602;8.722;2023-05-29T08:10:58;22.00;75.30
78904;DHT22;68291;49.602;8.722;2023-05-29T08:13:38;22.10;74.40
78904;DHT22;68291;49.602;8.722;2023-05-29T08:16:17;22.20;73.40
78904;DHT22;68291;49.602;8.722;2023-05-29T08:18:49;22.30;73.70
78904;DHT22;68291;49.602;8.722;2023-05-29T08:21:39;22.40;73.50
78904;DHT22;68291;49.602;8.722;2023-05-29T08:24:22;22.50;71.70
78904;DHT22;68291;49.602;8.722;2023-05-29T08:27:12;22.60;71.40
78904;DHT22;68291;49.602;8.722;2023-05-29T08:29:57;22.70;71.50
78904;DHT22;68291;49.602;8.722;2023-05-29T08:32:31;22.80;72.00
78904;DHT22;68291;49.602;8.722;2023-05-29T08:35:11;22.90;71.40
78904;DHT22;68291;49.602;8.722;2023-05-29T08:37:44;22.90;71.50
78904;DHT22;68291;49.602;8.722;2023-05-29T08:40:15;23.00;71.00
78904;DHT22;68291;49.602;8.722;2023-05-29T08:42:57;23.10;71.00
78904;DHT22;68291;49.602;8.722;2023-05-29T08:45:53;23.20;70.20
78904;DHT22;68291;49.602;8.722;2023-05-29T08:48:25;23.30;71.20
78904;DHT22;68291;49.602;8.722;2023-05-29T08:50:59;23.40;71.20
78904;DHT22;68291;49.602;8.722;2023-05-29T08:53:38;23.50;70.90
78904;DHT22;68291;49.602;8.722;2023-05-29T08:56:26;23.60;71.10
78904;DHT22;68291;49.602;8.722;2023-05-29T08:59:12;23.70;71.40
78904;DHT22;68291;49.602;8.722;2023-05-29T09:02:05;23.80;72.10
78904;DHT22;68291;49.602;8.722;2023-05-29T09:04:37;24.00;72.00
78904;DHT22;68291;49.602;8.722;2023-05-29T09:07:14;24.10;71.20
78904;DHT22;68291;49.602;8.722;2023-05-29T09:09:45;24.20;68.40
78904;DHT22;68291;49.602;8.722;2023-05-29T09:12:17;24.30;69.40
78904;DHT22;68291;49.602;8.722;2023-05-29T09:15:02;24.40;67.30
78904;DHT22;68291;49.602;8.722;2023-05-29T09:17:39;24.50;68.40
78904;DHT22;68291;49.602;8.722;2023-05-29T09:20:16;24.60;67.50
78904;DHT22;68291;49.602;8.722;2023-05-29T09:23:10;24.80;66.70
78904;DHT22;68291;49.602;8.722;2023-05-29T09:25:42;24.90;66.30
78904;DHT22;68291;49.602;8.722;2023-05-29T09:28:13;25.00;66.60
78904;DHT22;68291;49.602;8.722;2023-05-29T09:31:17;25.10;66.60
78904;DHT22;68291;49.602;8.722;2023-05-29T09:33:48;25.10;65.40
78904;DHT22;68291;49.602;8.722;2023-05-29T09:36:22;25.20;65.10
78904;DHT22;68291;49.602;8.722;2023-05-29T09:39:02;25.30;65.90
78904;DHT22;68291;49.602;8.722;2023-05-29T09:41:45;25.40;65.30
78904;DHT22;68291;49.602;8.722;2023-05-29T09:44:17;25.40;64.30
78904;DHT22;68291;49.602;8.722;2023-05-29T09:46:58;25.50;64.00
78904;DHT22;68291;49.602;8.722;2023-05-29T09:49:32;25.50;64.50
78904;DHT22;68291;49.602;8.722;2023-05-29T09:52:02;25.60;65.30
78904;DHT22;68291;49.602;8.722;2023-05-29T09:54:44;25.70;64.90
78904;DHT22;68291;49.602;8.722;2023-05-29T09:57:25;25.80;64.50
78904;DHT22;68291;49.602;8.722;2023-05-29T10:00:01;25.90;63.10
78904;DHT22;68291;49.602;8.722;2023-05-29T10:03:09;26.00;64.20
78904;DHT22;68291;49.602;8.722;2023-05-29T10:05:41;26.00;63.60
78904;DHT22;68291;49.602;8.722;2023-05-29T10:08:18;26.10;63.30
78904;DHT22;68291;49.602;8.722;2023-05-29T10:10:56;26.20;62.50
78904;DHT22;68291;49.602;8.722;2023-05-29T10:13:38;26.20;60.60
78904;DHT22;68291;49.602;8.722;2023-05-29T10:16:15;26.20;60.50
78904;DHT22;68291;49.602;8.722;2023-05-29T10:18:55;26.20;61.20
78904;DHT22;68291;49.602;8.722;2023-05-29T10:21:43;26.30;61.00
78904;DHT22;68291;49.602;8.722;2023-05-29T10:24:16;26.30;59.60
78904;DHT22;68291;49.602;8.722;2023-05-29T10:26:56;26.30;60.10
78904;DHT22;68291;49.602;8.722;2023-05-29T10:29:34;26.30;61.30
78904;DHT22;68291;49.602;8.722;2023-05-29T10:32:20;26.30;59.40
78904;DHT22;68291;49.602;8.722;2023-05-29T10:35:13;26.40;59.90
78904;DHT22;68291;49.602;8.722;2023-05-29T10:38:11;26.40;59.80
78904;DHT22;68291;49.602;8.722;2023-05-29T10:40:47;26.50;59.80
78904;DHT22;68291;49.602;8.722;2023-05-29T10:43:41;26.50;60.50
78904;DHT22;68291;49.602;8.722;2023-05-29T10:46:22;26.60;60.40
78904;DHT22;68291;49.602;8.722;2023-05-29T10:49:35;26.70;58.90
78904;DHT22;68291;49.602;8.722;2023-05-29T10:52:19;26.80;58.70
78904;DHT22;68291;49.602;8.722;2023-05-29T10:54:55;26.80;57.70
78904;DHT22;68291;49.602;8.722;2023-05-29T10:57:47;26.80;58.70
78904;DHT22;68291;49.602;8.722;2023-05-29T11:00:22;26.90;59.40
78904;DHT22;68291;49.602;8.722;2023-05-29T11:03:02;27.00;59.80
78904;DHT22;68291;49.602;8.722;2023-05-29T11:05:57;27.10;58.80
78904;DHT22;68291;49.602;8.722;2023-05-29T11:08:57;27.30;59.00
78904;DHT22;68291;49.602;8.722;2023-05-29T11:11:34;27.40;59.20
78904;DHT22;68291;49.602;8.722;2023-05-29T11:14:17;27.50;58.30
78904;DHT22;68291;49.602;8.722;2023-05-29T11:17:08;27.60;57.70
78904;DHT22;68291;49.602;8.722;2023-05-29T11:20:01;27.70;58.00
78904;DHT22;68291;49.602;8.722;2023-05-29T11:23:00;27.70;58.00
78904;DHT22;68291;49.602;8.722;2023-05-29T11:28:59;27.80;56.10
78904;DHT22;68291;49.602;8.722;2023-05-29T11:31:33;27.80;57.00
78904;DHT22;68291;49.602;8.722;2023-05-29T11:34:22;27.80;56.80
78904;DHT22;68291;49.602;8.722;2023-05-29T11:36:53;27.90;56.10
78904;DHT22;68291;49.602;8.722;2023-05-29T11:39:36;27.80;56.10
78904;DHT22;68291;49.602;8.722;2023-05-29T11:45:19;27.80;55.60
78904;DHT22;68291;49.602;8.722;2023-05-29T11:47:59;27.90;55.80
78904;DHT22;68291;49.602;8.722;2023-05-29T11:50:38;27.90;55.30
78904;DHT22;68291;49.602;8.722;2023-05-29T11:53:18;27.90;55.60
78904;DHT22;68291;49.602;8.722;2023-05-29T11:56:10;27.90;56.70
78904;DHT22;68291;49.602;8.722;2023-05-29T11:58:53;28.00;56.80
78904;DHT22;68291;49.602;8.722;2023-05-29T12:01:50;28.10;56.60
78904;DHT22;68291;49.602;8.722;2023-05-29T12:04:35;28.30;55.20
78904;DHT22;68291;49.602;8.722;2023-05-29T12:07:20;28.50;54.80
78904;DHT22;68291;49.602;8.722;2023-05-29T12:09:51;28.50;53.10
78904;DHT22;68291;49.602;8.722;2023-05-29T12:12:32;28.60;54.50
78904;DHT22;68291;49.602;8.722;2023-05-29T12:15:12;28.70;54.40
78904;DHT22;68291;49.602;8.722;2023-05-29T12:17:53;28.80;53.40
78904;DHT22;68291;49.602;8.722;2023-05-29T12:20:33;28.90;53.40
78904;DHT22;68291;49.602;8.722;2023-05-29T12:23:05;28.90;54.30
78904;DHT22;68291;49.602;8.722;2023-05-29T12:25:48;29.00;52.90
78904;DHT22;68291;49.602;8.722;2023-05-29T12:28:33;29.10;52.40
78904;DHT22;68291;49.602;8.722;2023-05-29T12:31:32;29.20;52.60
78904;DHT22;68291;49.602;8.722;2023-05-29T12:34:08;29.30;51.40
78904;DHT22;68291;49.602;8.722;2023-05-29T12:36:45;29.30;51.90
78904;DHT22;68291;49.602;8.722;2023-05-29T12:39:25;29.50;51.90
78904;DHT22;68291;49.602;8.722;2023-05-29T12:42:16;29.60;51.50
78904;DHT22;68291;49.602;8.722;2023-05-29T12:44:55;29.70;52.40
78904;DHT22;68291;49.602;8.722;2023-05-29T12:50:52;30.00;52.60
78904;DHT22;68291;49.602;8.722;2023-05-29T12:53:32;30.30;51.80
78904;DHT22;68291;49.602;8.722;2023-05-29T12:56:11;30.50;51.30
78904;DHT22;68291;49.602;8.722;2023-05-29T12:58:51;30.80;52.20
78904;DHT22;68291;49.602;8.722;2023-05-29T13:01:25;31.20;51.90
78904;DHT22;68291;49.602;8.722;2023-05-29T13:04:12;31.50;50.70
78904;DHT22;68291;49.602;8.722;2023-05-29T13:06:56;31.90;48.10
78904;DHT22;68291;49.602;8.722;2023-05-29T13:09:36;32.10;48.90
78904;DHT22;68291;49.602;8.722;2023-05-29T13:12:17;32.40;48.80
78904;DHT22;68291;49.602;8.722;2023-05-29T13:14:58;32.50;49.20
78904;DHT22;68291;49.602;8.722;2023-05-29T13:17:30;32.80;50.00
78904;DHT22;68291;49.602;8.722;2023-05-29T13:23:32;33.60;49.20
78904;DHT22;68291;49.602;8.722;2023-05-29T13:26:07;34.10;49.20
78904;DHT22;68291;49.602;8.722;2023-05-29T13:28:46;34.40;48.70
78904;DHT22;68291;49.602;8.722;2023-05-29T13:31:32;34.70;47.30
78904;DHT22;68291;49.602;8.722;2023-05-29T13:34:08;35.00;47.60
78904;DHT22;68291;49.602;8.722;2023-05-29T13:36:47;35.20;46.80
78904;DHT22;68291;49.602;8.722;2023-05-29T13:39:20;35.40;46.10
78904;DHT22;68291;49.602;8.722;2023-05-29T13:41:54;35.60;46.00
78904;DHT22;68291;49.602;8.722;2023-05-29T13:44:37;35.70;44.40
78904;DHT22;68291;49.602;8.722;2023-05-29T13:47:16;35.90;44.70
78904;DHT22;68291;49.602;8.722;2023-05-29T13:49:55;36.00;44.20
78904;DHT22;68291;49.602;8.722;2023-05-29T13:52:45;36.20;44.80
78904;DHT22;68291;49.602;8.722;2023-05-29T13:55:32;36.40;42.20
78904;DHT22;68291;49.602;8.722;2023-05-29T13:58:11;36.50;43.70
78904;DHT22;68291;49.602;8.722;2023-05-29T14:00:42;36.60;44.40
78904;DHT22;68291;49.602;8.722;2023-05-29T14:03:22;36.80;43.00
78904;DHT22;68291;49.602;8.722;2023-05-29T14:06:02;37.00;42.80
78904;DHT22;68291;49.602;8.722;2023-05-29T14:08:58;37.20;42.70
78904;DHT22;68291;49.602;8.722;2023-05-29T14:11:33;37.40;40.20
78904;DHT22;68291;49.602;8.722;2023-05-29T14:14:07;37.70;42.20
78904;DHT22;68291;49.602;8.722;2023-05-29T14:16:48;37.90;40.80
78904;DHT22;68291;49.602;8.722;2023-05-29T14:19:32;38.00;40.70
78904;DHT22;68291;49.602;8.722;2023-05-29T14:22:24;38.10;40.80
78904;DHT22;68291;49.602;8.722;2023-05-29T14:25:15;38.30;40.90
78904;DHT22;68291;49.602;8.722;2023-05-29T14:27:54;38.40;40.40
78904;DHT22;68291;49.602;8.722;2023-05-29T14:30:35;38.60;40.10
78904;DHT22;68291;49.602;8.722;2023-05-29T14:33:17;38.70;39.80
78904;DHT22;68291;49.602;8.722;2023-05-29T14:36:06;38.90;38.80
78904;DHT22;68291;49.602;8.722;2023-05-29T14:38:42;39.00;38.70
78904;DHT22;68291;49.602;8.722;2023-05-29T14:41:19;39.00;38.40
78904;DHT22;68291;49.602;8.722;2023-05-29T14:44:15;39.10;39.10
78904;DHT22;68291;49.602;8.722;2023-05-29T14:46:56;39.30;39.30
78904;DHT22;68291;49.602;8.722;2023-05-29T14:49:36;39.50;38.70
78904;DHT22;68291;49.602;8.722;2023-05-29T14:52:26;39.80;38.20
78904;DHT22;68291;49.602;8.722;2023-05-29T14:55:02;40.00;37.20
78904;DHT22;68291;49.602;8.722;2023-05-29T14:57:55;40.00;36.90
78904;DHT22;68291;49.602;8.722;2023-05-29T15:00:32;40.00;36.80
78904;DHT22;68291;49.602;8.722;2023-05-29T15:03:09;40.10;36.50
78904;DHT22;68291;49.602;8.722;2023-05-29T15:05:40;40.10;37.10
78904;DHT22;68291;49.602;8.722;2023-05-29T15:08:12;40.10;37.00
78904;DHT22;68291;49.602;8.722;2023-05-29T15:10:46;40.20;36.60
78904;DHT22;68291;49.602;8.722;2023-05-29T15:13:25;40.20;36.70
78904;DHT22;68291;49.602;8.722;2023-05-29T15:16:03;40.20;36.30
78904;DHT22;68291;49.602;8.722;2023-05-29T15:18:43;40.20;36.80
78904;DHT22;68291;49.602;8.722;2023-05-29T15:21:14;40.20;36.70
78904;DHT22;68291;49.602;8.722;2023-05-29T15:23:59;40.20;36.30
78904;DHT22;68291;49.602;8.722;2023-05-29T15:26:45;40.20;36.60
78904;DHT22;68291;49.602;8.722;2023-05-29T15:29:18;40.10;36.40
78904;DHT22;68291;49.602;8.722;2023-05-29T15:31:49;40.00;36.10
78904;DHT22;68291;49.602;8.722;2023-05-29T15:34:19;40.00;36.40
78904;DHT22;68291;49.602;8.722;2023-05-29T15:36:59;39.90;36.60
78904;DHT22;68291;49.602;8.722;2023-05-29T15:39:35;40.00;36.60
78904;DHT22;68291;49.602;8.722;2023-05-29T15:42:15;40.00;36.10
78904;DHT22;68291;49.602;8.722;2023-05-29T15:45:11;40.00;36.20
78904;DHT22;68291;49.602;8.722;2023-05-29T15:47:48;40.10;36.60
78904;DHT22;68291;49.602;8.722;2023-05-29T15:50:27;40.00;36.20
78904;DHT22;68291;49.602;8.722;2023-05-29T15:53:17;39.90;36.10
78904;DHT22;68291;49.602;8.722;2023-05-29T15:56:13;39.90;36.40
78904;DHT22;68291;49.602;8.722;2023-05-29T15:58:46;39.90;36.90
78904;DHT22;68291;49.602;8.722;2023-05-29T16:01:33;40.00;36.70
78904;DHT22;68291;49.602;8.722;2023-05-29T16:04:08;40.10;37.00
78904;DHT22;68291;49.602;8.722;2023-05-29T16:06:48;40.20;36.40
78904;DHT22;68291;49.602;8.722;2023-05-29T16:09:28;40.20;36.10
78904;DHT22;68291;49.602;8.722;2023-05-29T16:14:51;39.90;35.30
78904;DHT22;68291;49.602;8.722;2023-05-29T16:20:48;39.50;36.00
78904;DHT22;68291;49.602;8.722;2023-05-29T16:23:29;39.40;35.90
78904;DHT22;68291;49.602;8.722;2023-05-29T16:26:09;39.20;35.60
78904;DHT22;68291;49.602;8.722;2023-05-29T16:28:58;39.10;36.20
78904;DHT22;68291;49.602;8.722;2023-05-29T16:31:36;39.10;36.20
78904;DHT22;68291;49.602;8.722;2023-05-29T16:34:23;39.10;36.30
78904;DHT22;68291;49.602;8.722;2023-05-29T16:36:58;39.10;36.20
78904;DHT22;68291;49.602;8.722;2023-05-29T16:39:50;39.10;35.50
78904;DHT22;68291;49.602;8.722;2023-05-29T16:42:30;39.00;35.60
78904;DHT22;68291;49.602;8.722;2023-05-29T16:45:30;38.80;35.80
78904;DHT22;68291;49.602;8.722;2023-05-29T16:48:04;38.60;35.50
78904;DHT22;68291;49.602;8.722;2023-05-29T16:50:45;38.40;35.60
78904;DHT22;68291;49.602;8.722;2023-05-29T16:53:15;38.20;35.30
78904;DHT22;68291;49.602;8.722;2023-05-29T16:56:00;38.00;35.40
78904;DHT22;68291;49.602;8.722;2023-05-29T16:58:40;37.80;36.20
78904;DHT22;68291;49.602;8.722;2023-05-29T17:01:28;37.80;36.10
78904;DHT22;68291;49.602;8.722;2023-05-29T17:04:27;37.60;35.90
78904;DHT22;68291;49.602;8.722;2023-05-29T17:07:23;37.50;35.60
78904;DHT22;68291;49.602;8.722;2023-05-29T17:10:05;37.40;36.00
78904;DHT22;68291;49.602;8.722;2023-05-29T17:12:40;37.20;36.00
78904;DHT22;68291;49.602;8.722;2023-05-29T17:15:20;37.10;36.20
78904;DHT22;68291;49.602;8.722;2023-05-29T17:18:06;36.90;36.60
78904;DHT22;68291;49.602;8.722;2023-05-29T17:20:36;36.80;36.70
78904;DHT22;68291;49.602;8.722;2023-05-29T17:23:36;36.80;37.00
78904;DHT22;68291;49.602;8.722;2023-05-29T17:26:07;36.80;36.60